sensor_id;sensor_type;location;lat;lon;timestamp;pressure;altitude;pressure_sealevel;temperature;humidity
41596;BME280;27283;52.504;13.358;2023-04-05T00:00:23;102095.63;;;0.26;62.76
41596;BME280;27283;52.504;13.358;2023-04-05T00:03:15;102094.81;;;0.24;62.24
41596;BME280;27283;52.504;13.358;2023-04-05T00:05:48;102101.09;;;0.21;62.07
41596;BME280;27283;52.504;13.358;2023-04-05T00:08:21;102094.16;;;0.19;62.40
41596;BME280;27283;52.504;13.358;2023-04-05T00:10:56;102088.88;;;0.19;62.80
41596;BME280;27283;52.504;13.358;2023-04-05T00:13:28;102089.78;;;0.17;62.81
41596;BME280;27283;52.504;13.358;2023-04-05T00:16:00;102087.28;;;0.14;62.75
41596;BME280;27283;52.504;13.358;2023-04-05T00:18:34;102089.25;;;0.09;63.79
41596;BME280;27283;52.504;13.358;2023-04-05T00:21:06;102092.09;;;0.05;64.71
41596;BME280;27283;52.504;13.358;2023-04-05T00:23:38;102104.38;;;0.06;63.65
41596;BME280;27283;52.504;13.358;2023-04-05T00:26:12;102095.72;;;0.02;63.90
41596;BME280;27283;52.504;13.358;2023-04-05T00:28:46;102096.66;;;0.01;63.83
41596;BME280;27283;52.504;13.358;2023-04-05T00:31:18;102097.63;;;-0.02;65.25
41596;BME280;27283;52.504;13.358;2023-04-05T00:33:53;102095.03;;;-0.03;64.94
41596;BME280;27283;52.504;13.358;2023-04-05T00:36:25;102096.00;;;-0.04;64.35
41596;BME280;27283;52.504;13.358;2023-04-05T00:38:57;102088.97;;;-0.05;64.29
41596;BME280;27283;52.504;13.358;2023-04-05T00:41:30;102092.59;;;-0.08;66.29
41596;BME280;27283;52.504;13.358;2023-04-05T00:44:02;102089.94;;;-0.08;65.49
41596;BME280;27283;52.504;13.358;2023-04-05T00:46:38;102086.53;;;-0.10;65.31
41596;BME280;27283;52.504;13.358;2023-04-05T00:49:12;102084.78;;;-0.11;66.18
41596;BME280;27283;52.504;13.358;2023-04-05T00:51:45;102082.22;;;-0.12;66.14
41596;BME280;27283;52.504;13.358;2023-04-05T00:54:17;102078.78;;;-0.14;65.76
41596;BME280;27283;52.504;13.358;2023-04-05T00:56:50;102086.78;;;-0.16;66.79
41596;BME280;27283;52.504;13.358;2023-04-05T00:59:22;102072.78;;;-0.18;66.67
41596;BME280;27283;52.504;13.358;2023-04-05T01:02:12;102074.72;;;-0.23;67.08
41596;BME280;27283;52.504;13.358;2023-04-05T01:05:20;102077.38;;;-0.23;67.67
41596;BME280;27283;52.504;13.358;2023-04-05T01:08:12;102071.31;;;-0.25;67.96
41596;BME280;27283;52.504;13.358;2023-04-05T01:10:58;102075.91;;;-0.30;68.36
41596;BME280;27283;52.504;13.358;2023-04-05T01:13:32;102074.25;;;-0.33;69.22
41596;BME280;27283;52.504;13.358;2023-04-05T01:16:04;102070.94;;;-0.38;68.93
41596;BME280;27283;52.504;13.358;2023-04-05T01:18:41;102080.84;;;-0.43;69.57
41596;BME280;27283;52.504;13.358;2023-04-05T01:21:48;102076.47;;;-0.44;68.68
41596;BME280;27283;52.504;13.358;2023-04-05T01:24:48;102079.06;;;-0.43;67.71
41596;BME280;27283;52.504;13.358;2023-04-05T01:27:37;102085.22;;;-0.42;68.47
41596;BME280;27283;52.504;13.358;2023-04-05T01:30:20;102079.06;;;-0.43;68.03
41596;BME280;27283;52.504;13.358;2023-04-05T01:33:05;102080.72;;;-0.40;67.65
41596;BME280;27283;52.504;13.358;2023-04-05T01:35:54;102075.44;;;-0.40;67.71
41596;BME280;27283;52.504;13.358;2023-04-05T01:38:29;102073.81;;;-0.44;67.98
41596;BME280;27283;52.504;13.358;2023-04-05T01:41:04;102074.72;;;-0.44;67.62
41596;BME280;27283;52.504;13.358;2023-04-05T01:43:37;102070.34;;;-0.45;66.89
41596;BME280;27283;52.504;13.358;2023-04-05T01:46:12;102067.69;;;-0.45;67.19
41596;BME280;27283;52.504;13.358;2023-04-05T01:48:46;102073.09;;;-0.48;67.62
41596;BME280;27283;52.504;13.358;2023-04-05T01:51:19;102074.06;;;-0.50;68.49
41596;BME280;27283;52.504;13.358;2023-04-05T01:53:53;102062.59;;;-0.49;69.07
41596;BME280;27283;52.504;13.358;2023-04-05T01:56:26;102072.47;;;-0.55;69.74
41596;BME280;27283;52.504;13.358;2023-04-05T01:58:58;102071.44;;;-0.50;70.08
41596;BME280;27283;52.504;13.358;2023-04-05T02:01:34;102067.69;;;-0.45;69.09
41596;BME280;27283;52.504;13.358;2023-04-05T02:04:09;102053.44;;;-0.41;68.58
41596;BME280;27283;52.504;13.358;2023-04-05T02:06:43;102055.81;;;-0.34;67.51
41596;BME280;27283;52.504;13.358;2023-04-05T02:09:15;102053.97;;;-0.32;67.81
41596;BME280;27283;52.504;13.358;2023-04-05T02:11:49;102053.00;;;-0.30;67.85
41596;BME280;27283;52.504;13.358;2023-04-05T02:14:21;102056.97;;;-0.20;68.08
41596;BME280;27283;52.504;13.358;2023-04-05T02:16:58;102053.31;;;-0.17;68.07
41596;BME280;27283;52.504;13.358;2023-04-05T02:19:32;102050.63;;;-0.15;68.81
41596;BME280;27283;52.504;13.358;2023-04-05T02:22:09;102046.88;;;-0.10;68.94
41596;BME280;27283;52.504;13.358;2023-04-05T02:24:42;102057.19;;;-0.04;68.99
41596;BME280;27283;52.504;13.358;2023-04-05T02:27:15;102049.94;;;0.02;69.12
41596;BME280;27283;52.504;13.358;2023-04-05T02:29:48;102044.50;;;0.05;69.53
41596;BME280;27283;52.504;13.358;2023-04-05T02:32:24;102041.78;;;0.06;68.54
41596;BME280;27283;52.504;13.358;2023-04-05T02:34:57;102039.59;;;0.16;67.87
41596;BME280;27283;52.504;13.358;2023-04-05T02:37:30;102033.19;;;0.22;67.60
41596;BME280;27283;52.504;13.358;2023-04-05T02:40:06;102043.03;;;0.18;68.35
41596;BME280;27283;52.504;13.358;2023-04-05T02:42:40;102033.03;;;0.25;67.80
41596;BME280;27283;52.504;13.358;2023-04-05T02:45:13;102037.28;;;0.29;67.80
41596;BME280;27283;52.504;13.358;2023-04-05T02:47:49;102036.00;;;0.38;67.42
41596;BME280;27283;52.504;13.358;2023-04-05T02:50:22;102031.38;;;0.43;66.66
41596;BME280;27283;52.504;13.358;2023-04-05T02:52:57;102026.78;;;0.46;66.48
41596;BME280;27283;52.504;13.358;2023-04-05T02:55:31;102029.38;;;0.48;66.41
41596;BME280;27283;52.504;13.358;2023-04-05T02:58:04;102026.38;;;0.56;66.23
41596;BME280;27283;52.504;13.358;2023-04-05T03:00:36;102026.22;;;0.59;66.81
41596;BME280;27283;52.504;13.358;2023-04-05T03:03:13;102027.69;;;0.66;67.19
41596;BME280;27283;52.504;13.358;2023-04-05T03:05:56;102023.06;;;0.71;66.87
41596;BME280;27283;52.504;13.358;2023-04-05T03:08:30;102021.81;;;0.78;67.07
41596;BME280;27283;52.504;13.358;2023-04-05T03:11:05;102020.81;;;0.81;66.72
41596;BME280;27283;52.504;13.358;2023-04-05T03:13:39;102016.88;;;0.90;65.60
41596;BME280;27283;52.504;13.358;2023-04-05T03:16:12;102007.00;;;0.93;65.30
41596;BME280;27283;52.504;13.358;2023-04-05T03:18:51;102009.28;;;1.01;65.25
41596;BME280;27283;52.504;13.358;2023-04-05T03:21:25;102004.41;;;1.11;65.09
41596;BME280;27283;52.504;13.358;2023-04-05T03:23:58;102014.44;;;1.04;66.37
41596;BME280;27283;52.504;13.358;2023-04-05T03:26:30;102001.19;;;1.04;66.53
41596;BME280;27283;52.504;13.358;2023-04-05T03:29:04;102008.56;;;1.16;65.80
41596;BME280;27283;52.504;13.358;2023-04-05T03:31:38;102006.00;;;1.15;66.59
41596;BME280;27283;52.504;13.358;2023-04-05T03:34:14;102005.78;;;1.19;65.91
41596;BME280;27283;52.504;13.358;2023-04-05T03:36:46;102007.75;;;1.14;65.55
41596;BME280;27283;52.504;13.358;2023-04-05T03:39:19;102008.22;;;1.05;66.06
41596;BME280;27283;52.504;13.358;2023-04-05T03:41:51;102004.56;;;1.08;65.40
41596;BME280;27283;52.504;13.358;2023-04-05T03:44:24;102013.00;;;1.16;65.08
41596;BME280;27283;52.504;13.358;2023-04-05T03:46:57;102005.91;;;1.16;64.76
41596;BME280;27283;52.504;13.358;2023-04-05T03:49:33;102000.88;;;1.10;65.27
41596;BME280;27283;52.504;13.358;2023-04-05T03:52:05;102001.63;;;1.14;65.42
41596;BME280;27283;52.504;13.358;2023-04-05T03:54:38;102006.19;;;1.10;66.03
41596;BME280;27283;52.504;13.358;2023-04-05T03:57:10;102001.84;;;1.09;66.31
41596;BME280;27283;52.504;13.358;2023-04-05T03:59:42;102002.84;;;1.06;66.37
41596;BME280;27283;52.504;13.358;2023-04-05T04:02:15;102006.00;;;1.15;66.47
41596;BME280;27283;52.504;13.358;2023-04-05T04:04:51;101993.28;;;1.21;66.08
41596;BME280;27283;52.504;13.358;2023-04-05T04:07:23;101997.28;;;1.30;66.25
41596;BME280;27283;52.504;13.358;2023-04-05T04:09:55;102001.09;;;1.24;67.13
41596;BME280;27283;52.504;13.358;2023-04-05T04:12:27;102001.09;;;1.24;67.21
41596;BME280;27283;52.504;13.358;2023-04-05T04:15:01;101994.22;;;1.20;68.17
41596;BME280;27283;52.504;13.358;2023-04-05T04:17:35;101998.13;;;1.31;67.64
41596;BME280;27283;52.504;13.358;2023-04-05T04:20:11;101990.34;;;1.28;67.65
41596;BME280;27283;52.504;13.358;2023-04-05T04:22:43;101990.81;;;1.36;67.73
41596;BME280;27283;52.504;13.358;2023-04-05T04:25:17;102002.06;;;1.41;67.29
41596;BME280;27283;52.504;13.358;2023-04-05T04:27:50;101995.91;;;1.40;67.18
41596;BME280;27283;52.504;13.358;2023-04-05T04:30:29;101992.38;;;1.40;67.62
41596;BME280;27283;52.504;13.358;2023-04-05T04:33:02;101995.03;;;1.40;67.72
41596;BME280;27283;52.504;13.358;2023-04-05T04:35:40;101991.69;;;1.36;67.51
41596;BME280;27283;52.504;13.358;2023-04-05T04:38:15;101994.88;;;1.43;67.38
41596;BME280;27283;52.504;13.358;2023-04-05T04:40:49;102001.78;;;1.28;68.05
41596;BME280;27283;52.504;13.358;2023-04-05T04:43:22;102001.31;;;1.20;68.66
41596;BME280;27283;52.504;13.358;2023-04-05T04:46:02;101996.63;;;1.08;67.77
41596;BME280;27283;52.504;13.358;2023-04-05T04:48:40;102005.78;;;1.19;67.61
41596;BME280;27283;52.504;13.358;2023-04-05T04:51:19;102000.75;;;1.13;68.08
41596;BME280;27283;52.504;13.358;2023-04-05T04:53:52;101991.09;;;1.12;68.41
41596;BME280;27283;52.504;13.358;2023-04-05T04:56:25;102004.19;;;1.15;66.98
41596;BME280;27283;52.504;13.358;2023-04-05T04:58:58;101998.16;;;1.12;67.38
41596;BME280;27283;52.504;13.358;2023-04-05T05:01:30;101996.88;;;1.20;66.50
41596;BME280;27283;52.504;13.358;2023-04-05T05:04:03;102000.72;;;1.32;66.48
41596;BME280;27283;52.504;13.358;2023-04-05T05:06:39;101998.38;;;1.26;65.99
41596;BME280;27283;52.504;13.358;2023-04-05T05:09:12;101994.94;;;1.24;65.31
41596;BME280;27283;52.504;13.358;2023-04-05T05:11:44;102000.16;;;1.26;65.44
41596;BME280;27283;52.504;13.358;2023-04-05T05:14:17;101993.38;;;1.37;65.31
41596;BME280;27283;52.504;13.358;2023-04-05T05:16:49;101993.47;;;1.36;65.49
41596;BME280;27283;52.504;13.358;2023-04-05T05:19:25;102003.78;;;1.42;65.02
41596;BME280;27283;52.504;13.358;2023-04-05T05:22:03;101998.06;;;1.32;65.57
41596;BME280;27283;52.504;13.358;2023-04-05T05:24:36;101993.97;;;1.44;64.47
41596;BME280;27283;52.504;13.358;2023-04-05T05:27:09;101991.69;;;1.54;64.00
41596;BME280;27283;52.504;13.358;2023-04-05T05:29:41;101995.75;;;1.61;64.15
41596;BME280;27283;52.504;13.358;2023-04-05T05:32:15;102001.63;;;1.68;63.83
41596;BME280;27283;52.504;13.358;2023-04-05T05:34:48;101991.53;;;1.57;63.47
41596;BME280;27283;52.504;13.358;2023-04-05T05:37:29;101997.94;;;1.53;63.21
41596;BME280;27283;52.504;13.358;2023-04-05T05:40:02;101994.19;;;1.57;63.00
41596;BME280;27283;52.504;13.358;2023-04-05T05:42:36;101994.50;;;1.51;62.64
41596;BME280;27283;52.504;13.358;2023-04-05T05:45:09;101987.13;;;1.57;63.03
41596;BME280;27283;52.504;13.358;2023-04-05T05:47:46;101987.66;;;1.64;62.61
41596;BME280;27283;52.504;13.358;2023-04-05T05:50:19;101991.94;;;1.67;62.73
41596;BME280;27283;52.504;13.358;2023-04-05T05:52:54;101991.94;;;1.67;62.78
41596;BME280;27283;52.504;13.358;2023-04-05T05:55:30;101988.81;;;1.76;61.99
41596;BME280;27283;52.504;13.358;2023-04-05T05:58:03;101987.91;;;1.77;61.89
41596;BME280;27283;52.504;13.358;2023-04-05T06:00:35;101991.97;;;1.84;62.09
41596;BME280;27283;52.504;13.358;2023-04-05T06:03:09;101991.09;;;1.84;62.07
41596;BME280;27283;52.504;13.358;2023-04-05T06:05:57;101985.44;;;2.07;60.96
41596;BME280;27283;52.504;13.358;2023-04-05T06:08:34;101983.91;;;1.86;61.04
41596;BME280;27283;52.504;13.358;2023-04-05T06:11:16;101980.06;;;1.91;60.94
41596;BME280;27283;52.504;13.358;2023-04-05T06:13:50;101976.69;;;2.23;60.13
41596;BME280;27283;52.504;13.358;2023-04-05T06:16:22;101983.97;;;2.19;60.15
41596;BME280;27283;52.504;13.358;2023-04-05T06:18:55;101977.34;;;2.26;59.18
41596;BME280;27283;52.504;13.358;2023-04-05T06:21:28;101980.94;;;2.59;59.16
41596;BME280;27283;52.504;13.358;2023-04-05T06:24:29;101988.84;;;2.76;57.79
41596;BME280;27283;52.504;13.358;2023-04-05T06:27:02;101993.56;;;3.03;56.58
41596;BME280;27283;52.504;13.358;2023-04-05T06:29:34;101983.44;;;3.10;56.96
41596;BME280;27283;52.504;13.358;2023-04-05T06:32:07;101984.22;;;2.96;56.78
41596;BME280;27283;52.504;13.358;2023-04-05T06:34:39;101986.88;;;3.28;56.08
41596;BME280;27283;52.504;13.358;2023-04-05T06:37:15;101983.41;;;3.42;56.03
41596;BME280;27283;52.504;13.358;2023-04-05T06:39:50;101986.88;;;3.58;55.51
41596;BME280;27283;52.504;13.358;2023-04-05T06:42:23;101992.78;;;3.63;56.98
41596;BME280;27283;52.504;13.358;2023-04-05T06:44:55;101992.59;;;3.36;56.42
41596;BME280;27283;52.504;13.358;2023-04-05T06:47:28;101993.94;;;3.43;56.81
41596;BME280;27283;52.504;13.358;2023-04-05T06:50:00;101996.59;;;3.43;56.84
41596;BME280;27283;52.504;13.358;2023-04-05T06:52:33;101991.94;;;3.63;56.76
41596;BME280;27283;52.504;13.358;2023-04-05T06:55:09;101997.69;;;3.55;56.98
41596;BME280;27283;52.504;13.358;2023-04-05T06:57:42;101993.28;;;3.24;57.45
41596;BME280;27283;52.504;13.358;2023-04-05T07:00:14;101986.97;;;3.57;57.56
41596;BME280;27283;52.504;13.358;2023-04-05T07:02:47;101994.88;;;3.58;57.16
41596;BME280;27283;52.504;13.358;2023-04-05T07:05:19;101990.75;;;3.83;56.68
41596;BME280;27283;52.504;13.358;2023-04-05T07:07:52;101985.31;;;3.84;56.49
41596;BME280;27283;52.504;13.358;2023-04-05T07:10:27;101980.22;;;3.96;57.69
41596;BME280;27283;52.504;13.358;2023-04-05T07:13:00;101981.66;;;4.01;56.52
41596;BME280;27283;52.504;13.358;2023-04-05T07:15:32;101977.38;;;4.13;56.98
41596;BME280;27283;52.504;13.358;2023-04-05T07:18:04;101979.09;;;4.29;56.78
41596;BME280;27283;52.504;13.358;2023-04-05T07:20:37;101977.59;;;4.24;56.66
41596;BME280;27283;52.504;13.358;2023-04-05T07:23:10;101968.38;;;4.44;57.20
41596;BME280;27283;52.504;13.358;2023-04-05T07:25:45;101964.53;;;4.63;56.18
41596;BME280;27283;52.504;13.358;2023-04-05T07:28:17;101964.41;;;4.79;55.78
41596;BME280;27283;52.504;13.358;2023-04-05T07:30:49;101963.03;;;4.44;57.75
41596;BME280;27283;52.504;13.358;2023-04-05T07:33:23;101963.69;;;4.48;57.98
41596;BME280;27283;52.504;13.358;2023-04-05T07:35:55;101967.03;;;4.23;57.54
41596;BME280;27283;52.504;13.358;2023-04-05T07:38:27;101968.72;;;4.67;56.97
41596;BME280;27283;52.504;13.358;2023-04-05T07:41:03;101958.50;;;4.88;56.91
41596;BME280;27283;52.504;13.358;2023-04-05T07:43:35;101970.22;;;5.13;57.22
41596;BME280;27283;52.504;13.358;2023-04-05T07:46:07;101976.63;;;5.50;55.00
41596;BME280;27283;52.504;13.358;2023-04-05T07:48:40;101974.91;;;5.90;54.56
41596;BME280;27283;52.504;13.358;2023-04-05T07:51:13;101970.56;;;6.01;53.10
41596;BME280;27283;52.504;13.358;2023-04-05T07:53:45;101976.53;;;6.05;52.96
41596;BME280;27283;52.504;13.358;2023-04-05T07:56:20;101975.25;;;6.99;50.54
41596;BME280;27283;52.504;13.358;2023-04-05T07:58:53;101974.50;;;7.21;50.06
41596;BME280;27283;52.504;13.358;2023-04-05T08:01:25;101974.81;;;7.41;49.29
41596;BME280;27283;52.504;13.358;2023-04-05T08:03:59;101971.25;;;8.11;48.26
41596;BME280;27283;52.504;13.358;2023-04-05T08:06:32;101965.38;;;7.95;46.76
41596;BME280;27283;52.504;13.358;2023-04-05T08:09:04;101968.09;;;8.06;47.71
41596;BME280;27283;52.504;13.358;2023-04-05T08:11:39;101971.50;;;8.42;46.09
41596;BME280;27283;52.504;13.358;2023-04-05T08:14:14;101968.25;;;8.27;46.23
41596;BME280;27283;52.504;13.358;2023-04-05T08:17:23;101968.72;;;8.78;47.16
41596;BME280;27283;52.504;13.358;2023-04-05T08:19:57;101965.09;;;8.56;45.95
41596;BME280;27283;52.504;13.358;2023-04-05T08:22:29;101965.09;;;8.56;47.88
41596;BME280;27283;52.504;13.358;2023-04-05T08:25:01;101969.03;;;9.39;44.42
41596;BME280;27283;52.504;13.358;2023-04-05T08:27:39;101964.53;;;9.40;44.14
41596;BME280;27283;52.504;13.358;2023-04-05T08:30:16;101962.41;;;9.22;46.18
41596;BME280;27283;52.504;13.358;2023-04-05T08:32:48;101960.28;;;8.94;45.73
41596;BME280;27283;52.504;13.358;2023-04-05T08:35:21;101959.69;;;9.55;44.61
41596;BME280;27283;52.504;13.358;2023-04-05T08:38:05;101954.94;;;10.32;42.88
41596;BME280;27283;52.504;13.358;2023-04-05T08:40:46;101952.47;;;11.00;40.47
41596;BME280;27283;52.504;13.358;2023-04-05T08:43:27;101945.25;;;11.59;39.73
41596;BME280;27283;52.504;13.358;2023-04-05T08:46:07;101949.81;;;11.20;42.11
41596;BME280;27283;52.504;13.358;2023-04-05T08:48:40;101955.50;;;11.26;41.41
41596;BME280;27283;52.504;13.358;2023-04-05T08:51:12;101946.53;;;11.06;41.79
41596;BME280;27283;52.504;13.358;2023-04-05T08:53:44;101955.63;;;11.25;42.83
41596;BME280;27283;52.504;13.358;2023-04-05T08:56:20;101947.13;;;11.20;41.27
41596;BME280;27283;52.504;13.358;2023-04-05T08:59:02;101953.28;;;10.71;41.70
41596;BME280;27283;52.504;13.358;2023-04-05T09:01:38;101945.00;;;10.53;42.30
41596;BME280;27283;52.504;13.358;2023-04-05T09:04:15;101947.78;;;10.92;42.21
41596;BME280;27283;52.504;13.358;2023-04-05T09:06:49;101948.97;;;11.29;40.25
41596;BME280;27283;52.504;13.358;2023-04-05T09:09:21;101944.53;;;12.71;37.43
41596;BME280;27283;52.504;13.358;2023-04-05T09:11:54;101942.44;;;12.65;38.37
41596;BME280;27283;52.504;13.358;2023-04-05T09:14:29;101947.63;;;12.49;37.96
41596;BME280;27283;52.504;13.358;2023-04-05T09:17:05;101938.88;;;12.37;37.85
41596;BME280;27283;52.504;13.358;2023-04-05T09:19:40;101941.78;;;12.06;39.50
41596;BME280;27283;52.504;13.358;2023-04-05T09:22:12;101943.75;;;11.37;39.63
41596;BME280;27283;52.504;13.358;2023-04-05T09:24:46;101946.00;;;11.22;38.73
41596;BME280;27283;52.504;13.358;2023-04-05T09:27:19;101943.28;;;12.38;35.82
41596;BME280;27283;52.504;13.358;2023-04-05T09:29:53;101933.44;;;12.74;35.18
41596;BME280;27283;52.504;13.358;2023-04-05T09:32:26;101932.38;;;11.53;37.44
41596;BME280;27283;52.504;13.358;2023-04-05T09:34:58;101939.34;;;11.36;40.24
41596;BME280;27283;52.504;13.358;2023-04-05T09:37:32;101935.03;;;12.67;35.49
41596;BME280;27283;52.504;13.358;2023-04-05T09:40:05;101930.47;;;12.40;36.21
41596;BME280;27283;52.504;13.358;2023-04-05T09:42:43;101934.28;;;12.10;36.72
41596;BME280;27283;52.504;13.358;2023-04-05T09:45:26;101934.09;;;12.21;37.12
41596;BME280;27283;52.504;13.358;2023-04-05T09:48:02;101934.44;;;11.98;37.37
41596;BME280;27283;52.504;13.358;2023-04-05T09:50:35;101946.28;;;11.39;38.41
41596;BME280;27283;52.504;13.358;2023-04-05T09:53:11;101935.34;;;11.11;40.34
41596;BME280;27283;52.504;13.358;2023-04-05T09:55:46;101933.81;;;11.38;38.69
41596;BME280;27283;52.504;13.358;2023-04-05T09:58:19;101926.28;;;11.22;38.96
41596;BME280;27283;52.504;13.358;2023-04-05T10:00:54;101924.84;;;10.88;38.52
41596;BME280;27283;52.504;13.358;2023-04-05T10:03:49;101925.03;;;10.25;41.10
41596;BME280;27283;52.504;13.358;2023-04-05T10:06:22;101921.78;;;9.90;40.77
41596;BME280;27283;52.504;13.358;2023-04-05T10:08:55;101923.59;;;9.48;41.25
41596;BME280;27283;52.504;13.358;2023-04-05T10:11:27;101923.97;;;9.22;42.54
41596;BME280;27283;52.504;13.358;2023-04-05T10:14:01;101922.50;;;8.97;42.88
41596;BME280;27283;52.504;13.358;2023-04-05T10:16:52;101931.69;;;8.26;44.15
41596;BME280;27283;52.504;13.358;2023-04-05T10:19:33;101922.56;;;8.06;46.11
41596;BME280;27283;52.504;13.358;2023-04-05T10:22:13;101913.19;;;8.46;44.33
41596;BME280;27283;52.504;13.358;2023-04-05T10:24:51;101919.03;;;8.51;44.09
41596;BME280;27283;52.504;13.358;2023-04-05T10:27:30;101919.38;;;8.35;43.27
41596;BME280;27283;52.504;13.358;2023-04-05T10:30:05;101918.88;;;8.07;45.68
41596;BME280;27283;52.504;13.358;2023-04-05T10:32:53;101921.94;;;7.91;44.55
41596;BME280;27283;52.504;13.358;2023-04-05T10:35:33;101920.34;;;7.89;44.96
41596;BME280;27283;52.504;13.358;2023-04-05T10:38:20;101925.03;;;7.62;46.77
41596;BME280;27283;52.504;13.358;2023-04-05T10:40:56;101912.38;;;7.76;46.11
41596;BME280;27283;52.504;13.358;2023-04-05T10:43:31;101922.88;;;7.79;45.53
41596;BME280;27283;52.504;13.358;2023-04-05T10:46:06;101916.38;;;7.59;45.61
41596;BME280;27283;52.504;13.358;2023-04-05T10:48:47;101914.59;;;7.71;44.96
41596;BME280;27283;52.504;13.358;2023-04-05T10:51:23;101914.84;;;7.79;44.56
41596;BME280;27283;52.504;13.358;2023-04-05T10:53:56;101915.81;;;7.89;45.99
41596;BME280;27283;52.504;13.358;2023-04-05T10:56:29;101917.88;;;7.74;45.51
41596;BME280;27283;52.504;13.358;2023-04-05T10:59:02;101904.03;;;7.80;45.78
41596;BME280;27283;52.504;13.358;2023-04-05T11:01:36;101905.22;;;7.88;46.24
41596;BME280;27283;52.504;13.358;2023-04-05T11:04:15;101913.88;;;8.03;46.41
41596;BME280;27283;52.504;13.358;2023-04-05T11:07:10;101914.50;;;8.18;45.18
41596;BME280;27283;52.504;13.358;2023-04-05T11:09:55;101907.81;;;8.68;43.62
41596;BME280;27283;52.504;13.358;2023-04-05T11:15:32;101907.28;;;9.18;42.61
41596;BME280;27283;52.504;13.358;2023-04-05T11:18:07;101904.38;;;8.66;42.68
41596;BME280;27283;52.504;13.358;2023-04-05T11:20:46;101904.75;;;8.39;43.65
41596;BME280;27283;52.504;13.358;2023-04-05T11:23:20;101897.94;;;8.01;44.28
41596;BME280;27283;52.504;13.358;2023-04-05T11:25:54;101903.91;;;8.16;44.15
41596;BME280;27283;52.504;13.358;2023-04-05T11:28:33;101895.84;;;8.73;42.29
41596;BME280;27283;52.504;13.358;2023-04-05T11:31:14;101901.69;;;8.66;43.36
41596;BME280;27283;52.504;13.358;2023-04-05T11:33:55;101899.13;;;8.76;43.05
41596;BME280;27283;52.504;13.358;2023-04-05T11:36:36;101895.34;;;8.79;43.27
41596;BME280;27283;52.504;13.358;2023-04-05T11:39:22;101895.69;;;8.85;42.01
41596;BME280;27283;52.504;13.358;2023-04-05T11:41:58;101892.22;;;8.95;41.82
41596;BME280;27283;52.504;13.358;2023-04-05T11:44:40;101895.53;;;8.98;41.69
41596;BME280;27283;52.504;13.358;2023-04-05T11:47:15;101901.44;;;8.69;42.76
41596;BME280;27283;52.504;13.358;2023-04-05T11:49:50;101903.53;;;8.77;42.70
41596;BME280;27283;52.504;13.358;2023-04-05T11:52:24;101899.63;;;8.59;44.80
41596;BME280;27283;52.504;13.358;2023-04-05T11:54:56;101904.53;;;8.08;46.37
41596;BME280;27283;52.504;13.358;2023-04-05T11:57:30;101891.59;;;8.13;45.72
41596;BME280;27283;52.504;13.358;2023-04-05T12:00:07;101888.69;;;8.28;46.49
41596;BME280;27283;52.504;13.358;2023-04-05T12:02:42;101890.66;;;8.03;46.60
41596;BME280;27283;52.504;13.358;2023-04-05T12:05:16;101889.78;;;7.91;45.63
41596;BME280;27283;52.504;13.358;2023-04-05T12:07:54;101883.81;;;8.10;46.25
41596;BME280;27283;52.504;13.358;2023-04-05T12:10:26;101885.16;;;8.39;45.57
41596;BME280;27283;52.504;13.358;2023-04-05T12:12:58;101895.88;;;8.39;44.37
41596;BME280;27283;52.504;13.358;2023-04-05T12:15:29;101886.97;;;8.61;44.02
41596;BME280;27283;52.504;13.358;2023-04-05T12:18:04;101887.31;;;8.79;43.79
41596;BME280;27283;52.504;13.358;2023-04-05T12:20:43;101883.91;;;8.65;43.89
41596;BME280;27283;52.504;13.358;2023-04-05T12:23:17;101880.53;;;8.18;45.36
41596;BME280;27283;52.504;13.358;2023-04-05T12:25:53;101884.44;;;8.14;45.61
41596;BME280;27283;52.504;13.358;2023-04-05T12:28:25;101882.72;;;8.02;46.51
41596;BME280;27283;52.504;13.358;2023-04-05T12:31:39;101888.09;;;7.79;47.02
41596;BME280;27283;52.504;13.358;2023-04-05T12:34:13;101878.34;;;7.31;48.93
41596;BME280;27283;52.504;13.358;2023-04-05T12:36:47;101885.69;;;7.40;49.07
41596;BME280;27283;52.504;13.358;2023-04-05T12:39:28;101876.50;;;7.67;46.94
41596;BME280;27283;52.504;13.358;2023-04-05T12:42:03;101877.59;;;7.76;46.10
41596;BME280;27283;52.504;13.358;2023-04-05T12:44:37;101872.34;;;7.74;44.35
41596;BME280;27283;52.504;13.358;2023-04-05T12:47:10;101864.09;;;8.00;43.65
41596;BME280;27283;52.504;13.358;2023-04-05T12:49:43;101862.28;;;8.23;44.05
41596;BME280;27283;52.504;13.358;2023-04-05T12:52:18;101873.81;;;8.24;44.42
41596;BME280;27283;52.504;13.358;2023-04-05T12:54:58;101865.78;;;8.35;44.55
41596;BME280;27283;52.504;13.358;2023-04-05T12:57:33;101860.47;;;7.90;46.21
41596;BME280;27283;52.504;13.358;2023-04-05T13:00:17;101877.72;;;7.86;46.56
41596;BME280;27283;52.504;13.358;2023-04-05T13:02:54;101865.81;;;8.12;45.43
41596;BME280;27283;52.504;13.358;2023-04-05T13:05:28;101863.94;;;8.36;45.41
41596;BME280;27283;52.504;13.358;2023-04-05T13:08:04;101857.63;;;8.48;45.62
41596;BME280;27283;52.504;13.358;2023-04-05T13:10:43;101851.44;;;8.47;45.77
41596;BME280;27283;52.504;13.358;2023-04-05T13:13:19;101858.13;;;8.30;44.34
41596;BME280;27283;52.504;13.358;2023-04-05T13:15:52;101850.91;;;8.42;43.88
41596;BME280;27283;52.504;13.358;2023-04-05T13:18:25;101840.91;;;8.56;44.82
41596;BME280;27283;52.504;13.358;2023-04-05T13:20:58;101841.28;;;8.51;43.94
41596;BME280;27283;52.504;13.358;2023-04-05T13:23:37;101848.13;;;8.55;44.34
41596;BME280;27283;52.504;13.358;2023-04-05T13:26:13;101835.91;;;8.62;43.86
41596;BME280;27283;52.504;13.358;2023-04-05T13:28:48;101840.56;;;8.38;43.86
41596;BME280;27283;52.504;13.358;2023-04-05T13:31:20;101833.25;;;8.40;44.02
41596;BME280;27283;52.504;13.358;2023-04-05T13:33:54;101824.75;;;8.12;45.00